sensor_id;sensor_type;location;lat;lon;timestamp;P1;durP1;ratioP1;P2;durP2;ratioP2
66585;SDS011;53444;45.822;16.092;2022-12-29T00:02:14;62.45;;;28.10;;
66585;SDS011;53444;45.822;16.092;2022-12-29T00:04:42;52.17;;;24.13;;
66585;SDS011;53444;45.822;16.092;2022-12-29T00:07:09;46.28;;;21.95;;
66585;SDS011;53444;45.822;16.092;2022-12-29T00:09:36;48.05;;;23.13;;
66585;SDS011;53444;45.822;16.092;2022-12-29T00:12:03;57.28;;;23.90;;
66585;SDS011;53444;45.822;16.092;2022-12-29T00:14:30;46.88;;;22.63;;
66585;SDS011;53444;45.822;16.092;2022-12-29T00:17:14;51.40;;;24.20;;
66585;SDS011;53444;45.822;16.092;2022-12-29T00:19:42;50.08;;;22.80;;
66585;SDS011;53444;45.822;16.092;2022-12-29T00:22:27;45.67;;;21.33;;
66585;SDS011;53444;45.822;16.092;2022-12-29T00:25:11;52.00;;;21.48;;
66585;SDS011;53444;45.822;16.092;2022-12-29T00:27:56;46.15;;;21.50;;
66585;SDS011;53444;45.822;16.092;2022-12-29T00:30:41;55.97;;;22.13;;
66585;SDS011;53444;45.822;16.092;2022-12-29T00:33:26;50.10;;;21.88;;
66585;SDS011;53444;45.822;16.092;2022-12-29T00:36:15;53.53;;;22.65;;
66585;SDS011;53444;45.822;16.092;2022-12-29T00:38:45;60.85;;;23.30;;
66585;SDS011;53444;45.822;16.092;2022-12-29T00:41:32;54.85;;;25.65;;
66585;SDS011;53444;45.822;16.092;2022-12-29T00:44:16;56.40;;;25.07;;
66585;SDS011;53444;45.822;16.092;2022-12-29T00:46:43;59.50;;;25.23;;
66585;SDS011;53444;45.822;16.092;2022-12-29T00:49:11;66.70;;;27.23;;
66585;SDS011;53444;45.822;16.092;2022-12-29T00:51:57;65.95;;;26.75;;
66585;SDS011;53444;45.822;16.092;2022-12-29T00:54:25;73.35;;;27.85;;
66585;SDS011;53444;45.822;16.092;2022-12-29T00:56:52;66.90;;;28.93;;
66585;SDS011;53444;45.822;16.092;2022-12-29T00:59:19;54.65;;;25.73;;
66585;SDS011;53444;45.822;16.092;2022-12-29T01:01:46;64.88;;;27.55;;
66585;SDS011;53444;45.822;16.092;2022-12-29T01:04:13;66.85;;;28.90;;
66585;SDS011;53444;45.822;16.092;2022-12-29T01:06:40;61.05;;;26.33;;
66585;SDS011;53444;45.822;16.092;2022-12-29T01:09:09;56.17;;;24.43;;
66585;SDS011;53444;45.822;16.092;2022-12-29T01:11:54;55.25;;;24.33;;
66585;SDS011;53444;45.822;16.092;2022-12-29T01:14:21;62.55;;;24.58;;
66585;SDS011;53444;45.822;16.092;2022-12-29T01:16:48;58.85;;;24.23;;
66585;SDS011;53444;45.822;16.092;2022-12-29T01:19:15;56.88;;;26.13;;
66585;SDS011;53444;45.822;16.092;2022-12-29T01:21:42;56.03;;;23.30;;
66585;SDS011;53444;45.822;16.092;2022-12-29T01:24:10;66.18;;;25.52;;
66585;SDS011;53444;45.822;16.092;2022-12-29T01:26:37;53.40;;;22.83;;
66585;SDS011;53444;45.822;16.092;2022-12-29T01:29:04;51.45;;;23.20;;
66585;SDS011;53444;45.822;16.092;2022-12-29T01:31:30;52.67;;;21.40;;
66585;SDS011;53444;45.822;16.092;2022-12-29T01:33:57;60.70;;;22.90;;
66585;SDS011;53444;45.822;16.092;2022-12-29T01:36:24;44.30;;;19.73;;
66585;SDS011;53444;45.822;16.092;2022-12-29T01:38:50;60.72;;;22.73;;
66585;SDS011;53444;45.822;16.092;2022-12-29T01:41:18;51.53;;;21.60;;
66585;SDS011;53444;45.822;16.092;2022-12-29T01:43:46;44.15;;;20.05;;
66585;SDS011;53444;45.822;16.092;2022-12-29T01:46:25;50.23;;;21.40;;
66585;SDS011;53444;45.822;16.092;2022-12-29T01:48:55;43.85;;;19.63;;
66585;SDS011;53444;45.822;16.092;2022-12-29T01:51:25;47.50;;;20.85;;
66585;SDS011;53444;45.822;16.092;2022-12-29T01:53:53;53.13;;;20.65;;
66585;SDS011;53444;45.822;16.092;2022-12-29T01:56:23;47.25;;;21.10;;
66585;SDS011;53444;45.822;16.092;2022-12-29T01:58:52;48.10;;;19.77;;
66585;SDS011;53444;45.822;16.092;2022-12-29T02:01:24;43.53;;;19.85;;
66585;SDS011;53444;45.822;16.092;2022-12-29T02:03:50;46.88;;;19.83;;
66585;SDS011;53444;45.822;16.092;2022-12-29T02:06:18;58.08;;;20.88;;
66585;SDS011;53444;45.822;16.092;2022-12-29T02:08:48;44.88;;;20.80;;
66585;SDS011;53444;45.822;16.092;2022-12-29T02:11:18;40.07;;;19.53;;
66585;SDS011;53444;45.822;16.092;2022-12-29T02:13:47;44.50;;;20.25;;
66585;SDS011;53444;45.822;16.092;2022-12-29T02:16:16;42.05;;;19.15;;
66585;SDS011;53444;45.822;16.092;2022-12-29T02:18:55;42.55;;;19.45;;
66585;SDS011;53444;45.822;16.092;2022-12-29T02:21:39;43.60;;;18.40;;
66585;SDS011;53444;45.822;16.092;2022-12-29T02:24:26;43.03;;;18.83;;
66585;SDS011;53444;45.822;16.092;2022-12-29T02:27:31;45.22;;;22.02;;
66585;SDS011;53444;45.822;16.092;2022-12-29T02:30:29;43.75;;;20.27;;
66585;SDS011;53444;45.822;16.092;2022-12-29T02:33:04;42.13;;;19.98;;
66585;SDS011;53444;45.822;16.092;2022-12-29T02:35:41;43.53;;;18.77;;
66585;SDS011;53444;45.822;16.092;2022-12-29T02:38:17;45.90;;;20.03;;
66585;SDS011;53444;45.822;16.092;2022-12-29T02:40:51;48.63;;;21.88;;
66585;SDS011;53444;45.822;16.092;2022-12-29T02:43:22;51.88;;;23.55;;
66585;SDS011;53444;45.822;16.092;2022-12-29T02:45:56;49.42;;;22.35;;
66585;SDS011;53444;45.822;16.092;2022-12-29T02:48:27;47.30;;;21.90;;
66585;SDS011;53444;45.822;16.092;2022-12-29T02:50:59;47.43;;;21.80;;
66585;SDS011;53444;45.822;16.092;2022-12-29T02:53:28;50.10;;;20.88;;
66585;SDS011;53444;45.822;16.092;2022-12-29T02:56:14;47.83;;;20.00;;
66585;SDS011;53444;45.822;16.092;2022-12-29T02:58:40;48.20;;;20.60;;
66585;SDS011;53444;45.822;16.092;2022-12-29T03:01:14;44.45;;;21.38;;
66585;SDS011;53444;45.822;16.092;2022-12-29T03:03:56;40.90;;;19.50;;
66585;SDS011;53444;45.822;16.092;2022-12-29T03:06:38;42.92;;;19.08;;
66585;SDS011;53444;45.822;16.092;2022-12-29T03:09:19;33.25;;;16.52;;
66585;SDS011;53444;45.822;16.092;2022-12-29T03:11:53;30.73;;;14.40;;
66585;SDS011;53444;45.822;16.092;2022-12-29T03:14:37;33.90;;;14.32;;
66585;SDS011;53444;45.822;16.092;2022-12-29T03:17:45;36.80;;;16.07;;
66585;SDS011;53444;45.822;16.092;2022-12-29T03:20:18;31.70;;;17.52;;
66585;SDS011;53444;45.822;16.092;2022-12-29T03:22:49;37.03;;;17.98;;
66585;SDS011;53444;45.822;16.092;2022-12-29T03:25:20;34.90;;;17.42;;
66585;SDS011;53444;45.822;16.092;2022-12-29T03:27:51;44.63;;;21.30;;
66585;SDS011;53444;45.822;16.092;2022-12-29T03:30:22;48.83;;;22.67;;
66585;SDS011;53444;45.822;16.092;2022-12-29T03:32:51;52.90;;;24.05;;
66585;SDS011;53444;45.822;16.092;2022-12-29T03:35:22;55.45;;;23.30;;
66585;SDS011;53444;45.822;16.092;2022-12-29T03:37:52;41.83;;;20.70;;
66585;SDS011;53444;45.822;16.092;2022-12-29T03:40:25;48.35;;;21.73;;
66585;SDS011;53444;45.822;16.092;2022-12-29T03:42:53;40.47;;;20.30;;
66585;SDS011;53444;45.822;16.092;2022-12-29T03:45:21;47.25;;;20.55;;
66585;SDS011;53444;45.822;16.092;2022-12-29T03:47:48;46.20;;;21.50;;
66585;SDS011;53444;45.822;16.092;2022-12-29T03:50:16;44.22;;;20.42;;
66585;SDS011;53444;45.822;16.092;2022-12-29T03:52:43;43.17;;;20.20;;
66585;SDS011;53444;45.822;16.092;2022-12-29T03:55:09;42.83;;;20.17;;
66585;SDS011;53444;45.822;16.092;2022-12-29T03:57:36;42.08;;;20.52;;
66585;SDS011;53444;45.822;16.092;2022-12-29T04:00:03;42.70;;;19.80;;
66585;SDS011;53444;45.822;16.092;2022-12-29T04:02:31;36.25;;;19.50;;
66585;SDS011;53444;45.822;16.092;2022-12-29T04:04:57;41.58;;;16.73;;
66585;SDS011;53444;45.822;16.092;2022-12-29T04:07:26;34.30;;;16.17;;
66585;SDS011;53444;45.822;16.092;2022-12-29T04:09:53;33.20;;;15.88;;
66585;SDS011;53444;45.822;16.092;2022-12-29T04:12:19;43.55;;;19.98;;
66585;SDS011;53444;45.822;16.092;2022-12-29T04:14:46;44.10;;;21.17;;
66585;SDS011;53444;45.822;16.092;2022-12-29T04:17:13;58.67;;;23.77;;
66585;SDS011;53444;45.822;16.092;2022-12-29T04:19:39;63.77;;;24.93;;
66585;SDS011;53444;45.822;16.092;2022-12-29T04:22:06;62.13;;;24.77;;
66585;SDS011;53444;45.822;16.092;2022-12-29T04:24:34;61.38;;;25.15;;
66585;SDS011;53444;45.822;16.092;2022-12-29T04:27:01;56.55;;;25.67;;
66585;SDS011;53444;45.822;16.092;2022-12-29T04:29:27;58.45;;;24.30;;
66585;SDS011;53444;45.822;16.092;2022-12-29T04:31:54;57.50;;;24.33;;
66585;SDS011;53444;45.822;16.092;2022-12-29T04:34:20;54.00;;;22.90;;
66585;SDS011;53444;45.822;16.092;2022-12-29T04:36:47;53.45;;;23.05;;
66585;SDS011;53444;45.822;16.092;2022-12-29T04:39:13;49.00;;;24.02;;
66585;SDS011;53444;45.822;16.092;2022-12-29T04:41:41;52.45;;;23.95;;
66585;SDS011;53444;45.822;16.092;2022-12-29T04:44:08;49.70;;;23.47;;
66585;SDS011;53444;45.822;16.092;2022-12-29T04:46:34;45.28;;;21.48;;
66585;SDS011;53444;45.822;16.092;2022-12-29T04:49:01;49.08;;;22.52;;
66585;SDS011;53444;45.822;16.092;2022-12-29T04:51:33;46.88;;;23.98;;
66585;SDS011;53444;45.822;16.092;2022-12-29T04:54:00;47.20;;;24.02;;
66585;SDS011;53444;45.822;16.092;2022-12-29T04:56:27;49.30;;;22.50;;
66585;SDS011;53444;45.822;16.092;2022-12-29T04:58:54;42.60;;;20.70;;
66585;SDS011;53444;45.822;16.092;2022-12-29T05:01:21;44.17;;;20.48;;
66585;SDS011;53444;45.822;16.092;2022-12-29T05:03:49;35.13;;;18.73;;
66585;SDS011;53444;45.822;16.092;2022-12-29T05:06:16;31.83;;;16.48;;
66585;SDS011;53444;45.822;16.092;2022-12-29T05:08:43;36.73;;;17.90;;
66585;SDS011;53444;45.822;16.092;2022-12-29T05:11:10;29.20;;;14.82;;
66585;SDS011;53444;45.822;16.092;2022-12-29T05:13:36;33.53;;;15.48;;
66585;SDS011;53444;45.822;16.092;2022-12-29T05:16:04;38.05;;;15.95;;
66585;SDS011;53444;45.822;16.092;2022-12-29T05:18:31;32.92;;;15.43;;
66585;SDS011;53444;45.822;16.092;2022-12-29T05:20:58;32.47;;;16.20;;
66585;SDS011;53444;45.822;16.092;2022-12-29T05:23:24;35.42;;;17.38;;
66585;SDS011;53444;45.822;16.092;2022-12-29T05:25:51;38.33;;;18.13;;
66585;SDS011;53444;45.822;16.092;2022-12-29T05:28:18;38.10;;;18.85;;
66585;SDS011;53444;45.822;16.092;2022-12-29T05:30:46;40.92;;;20.02;;
66585;SDS011;53444;45.822;16.092;2022-12-29T05:33:15;45.20;;;19.87;;
66585;SDS011;53444;45.822;16.092;2022-12-29T05:35:42;33.40;;;17.35;;
66585;SDS011;53444;45.822;16.092;2022-12-29T05:38:09;36.30;;;17.30;;
66585;SDS011;53444;45.822;16.092;2022-12-29T05:40:36;42.13;;;19.83;;
66585;SDS011;53444;45.822;16.092;2022-12-29T05:43:02;39.20;;;20.20;;
66585;SDS011;53444;45.822;16.092;2022-12-29T05:45:29;46.53;;;19.70;;
66585;SDS011;53444;45.822;16.092;2022-12-29T05:47:55;43.60;;;19.42;;
66585;SDS011;53444;45.822;16.092;2022-12-29T05:50:23;42.92;;;20.10;;
66585;SDS011;53444;45.822;16.092;2022-12-29T05:52:50;39.15;;;18.58;;
66585;SDS011;53444;45.822;16.092;2022-12-29T05:55:17;37.40;;;18.45;;
66585;SDS011;53444;45.822;16.092;2022-12-29T05:57:43;41.87;;;18.53;;
66585;SDS011;53444;45.822;16.092;2022-12-29T06:00:10;39.00;;;17.42;;
66585;SDS011;53444;45.822;16.092;2022-12-29T06:02:37;39.35;;;18.40;;
66585;SDS011;53444;45.822;16.092;2022-12-29T06:05:04;35.83;;;17.35;;
66585;SDS011;53444;45.822;16.092;2022-12-29T06:07:33;41.67;;;19.27;;
66585;SDS011;53444;45.822;16.092;2022-12-29T06:09:59;46.23;;;19.40;;
66585;SDS011;53444;45.822;16.092;2022-12-29T06:12:26;40.15;;;19.02;;
66585;SDS011;53444;45.822;16.092;2022-12-29T06:14:53;36.78;;;17.90;;
66585;SDS011;53444;45.822;16.092;2022-12-29T06:17:19;47.05;;;20.17;;
66585;SDS011;53444;45.822;16.092;2022-12-29T06:19:46;46.97;;;24.17;;
66585;SDS011;53444;45.822;16.092;2022-12-29T06:22:12;48.77;;;22.20;;
66585;SDS011;53444;45.822;16.092;2022-12-29T06:24:40;51.60;;;23.75;;
66585;SDS011;53444;45.822;16.092;2022-12-29T06:27:07;49.25;;;21.63;;
66585;SDS011;53444;45.822;16.092;2022-12-29T06:29:34;48.00;;;20.25;;
66585;SDS011;53444;45.822;16.092;2022-12-29T06:32:02;44.67;;;20.60;;
66585;SDS011;53444;45.822;16.092;2022-12-29T06:34:29;47.27;;;21.43;;
66585;SDS011;53444;45.822;16.092;2022-12-29T06:36:55;46.90;;;22.63;;
66585;SDS011;53444;45.822;16.092;2022-12-29T06:39:22;53.90;;;25.35;;
66585;SDS011;53444;45.822;16.092;2022-12-29T06:41:52;49.28;;;22.38;;
66585;SDS011;53444;45.822;16.092;2022-12-29T06:44:19;48.08;;;23.92;;
66585;SDS011;53444;45.822;16.092;2022-12-29T06:46:46;48.63;;;22.43;;
66585;SDS011;53444;45.822;16.092;2022-12-29T06:49:13;45.75;;;22.30;;
66585;SDS011;53444;45.822;16.092;2022-12-29T06:51:40;36.80;;;18.80;;
66585;SDS011;53444;45.822;16.092;2022-12-29T06:54:07;36.58;;;18.58;;
66585;SDS011;53444;45.822;16.092;2022-12-29T06:56:33;34.63;;;17.17;;
66585;SDS011;53444;45.822;16.092;2022-12-29T06:59:01;40.10;;;18.47;;
66585;SDS011;53444;45.822;16.092;2022-12-29T07:01:28;42.13;;;18.33;;
66585;SDS011;53444;45.822;16.092;2022-12-29T07:03:54;36.13;;;16.80;;
66585;SDS011;53444;45.822;16.092;2022-12-29T07:06:21;35.45;;;16.23;;
66585;SDS011;53444;45.822;16.092;2022-12-29T07:08:48;33.67;;;16.88;;
66585;SDS011;53444;45.822;16.092;2022-12-29T07:11:14;36.87;;;17.23;;
66585;SDS011;53444;45.822;16.092;2022-12-29T07:13:41;31.52;;;14.88;;
66585;SDS011;53444;45.822;16.092;2022-12-29T07:16:09;30.63;;;16.33;;
66585;SDS011;53444;45.822;16.092;2022-12-29T07:18:36;29.50;;;15.32;;
66585;SDS011;53444;45.822;16.092;2022-12-29T07:21:03;27.70;;;14.80;;
66585;SDS011;53444;45.822;16.092;2022-12-29T07:23:30;27.77;;;13.60;;
66585;SDS011;53444;45.822;16.092;2022-12-29T07:26:00;33.42;;;15.02;;
66585;SDS011;53444;45.822;16.092;2022-12-29T07:28:27;47.78;;;21.10;;
66585;SDS011;53444;45.822;16.092;2022-12-29T07:30:54;44.42;;;20.48;;
66585;SDS011;53444;45.822;16.092;2022-12-29T07:33:22;41.83;;;20.42;;
66585;SDS011;53444;45.822;16.092;2022-12-29T07:35:49;39.03;;;18.13;;
66585;SDS011;53444;45.822;16.092;2022-12-29T07:38:15;41.83;;;20.17;;
66585;SDS011;53444;45.822;16.092;2022-12-29T07:40:42;46.50;;;22.73;;
66585;SDS011;53444;45.822;16.092;2022-12-29T07:43:09;50.00;;;22.60;;
66585;SDS011;53444;45.822;16.092;2022-12-29T07:45:36;50.72;;;24.27;;
66585;SDS011;53444;45.822;16.092;2022-12-29T07:48:03;54.23;;;26.30;;
66585;SDS011;53444;45.822;16.092;2022-12-29T07:50:34;56.97;;;24.35;;
66585;SDS011;53444;45.822;16.092;2022-12-29T07:53:01;58.00;;;26.27;;
66585;SDS011;53444;45.822;16.092;2022-12-29T07:55:28;60.72;;;27.80;;
66585;SDS011;53444;45.822;16.092;2022-12-29T07:57:54;67.88;;;28.83;;
66585;SDS011;53444;45.822;16.092;2022-12-29T08:00:21;63.10;;;26.53;;
66585;SDS011;53444;45.822;16.092;2022-12-29T08:02:48;72.10;;;29.13;;
66585;SDS011;53444;45.822;16.092;2022-12-29T08:05:15;63.05;;;29.10;;
66585;SDS011;53444;45.822;16.092;2022-12-29T08:07:43;73.80;;;31.17;;
66585;SDS011;53444;45.822;16.092;2022-12-29T08:10:11;51.63;;;25.85;;
66585;SDS011;53444;45.822;16.092;2022-12-29T08:12:38;61.63;;;30.03;;
66585;SDS011;53444;45.822;16.092;2022-12-29T08:15:06;55.03;;;27.42;;
66585;SDS011;53444;45.822;16.092;2022-12-29T08:17:34;51.38;;;24.65;;
66585;SDS011;53444;45.822;16.092;2022-12-29T08:20:03;59.45;;;25.45;;
66585;SDS011;53444;45.822;16.092;2022-12-29T08:22:31;46.83;;;24.80;;
66585;SDS011;53444;45.822;16.092;2022-12-29T08:25:13;48.53;;;25.07;;
66585;SDS011;53444;45.822;16.092;2022-12-29T08:27:41;47.30;;;24.20;;
66585;SDS011;53444;45.822;16.092;2022-12-29T08:30:10;51.17;;;25.08;;
66585;SDS011;53444;45.822;16.092;2022-12-29T08:32:37;54.47;;;25.55;;
66585;SDS011;53444;45.822;16.092;2022-12-29T08:35:04;48.95;;;25.02;;
66585;SDS011;53444;45.822;16.092;2022-12-29T08:37:31;50.93;;;24.70;;
66585;SDS011;53444;45.822;16.092;2022-12-29T08:39:59;51.53;;;24.50;;
66585;SDS011;53444;45.822;16.092;2022-12-29T08:42:30;52.35;;;26.80;;
66585;SDS011;53444;45.822;16.092;2022-12-29T08:44:57;64.97;;;28.27;;
66585;SDS011;53444;45.822;16.092;2022-12-29T08:47:24;60.97;;;30.00;;
66585;SDS011;53444;45.822;16.092;2022-12-29T08:49:51;49.73;;;24.27;;
66585;SDS011;53444;45.822;16.092;2022-12-29T08:52:18;58.10;;;27.35;;
66585;SDS011;53444;45.822;16.092;2022-12-29T08:54:47;53.55;;;25.83;;
66585;SDS011;53444;45.822;16.092;2022-12-29T08:57:13;68.35;;;30.55;;
66585;SDS011;53444;45.822;16.092;2022-12-29T08:59:42;56.63;;;27.42;;
66585;SDS011;53444;45.822;16.092;2022-12-29T09:02:10;58.27;;;28.67;;
66585;SDS011;53444;45.822;16.092;2022-12-29T09:04:37;66.40;;;31.52;;
66585;SDS011;53444;45.822;16.092;2022-12-29T09:07:06;63.90;;;31.05;;
66585;SDS011;53444;45.822;16.092;2022-12-29T09:09:33;80.07;;;36.03;;
66585;SDS011;53444;45.822;16.092;2022-12-29T09:11:59;70.53;;;34.55;;
66585;SDS011;53444;45.822;16.092;2022-12-29T09:14:26;76.77;;;37.27;;
66585;SDS011;53444;45.822;16.092;2022-12-29T09:16:54;83.60;;;36.80;;
66585;SDS011;53444;45.822;16.092;2022-12-29T09:23:08;90.70;;;41.88;;
66585;SDS011;53444;45.822;16.092;2022-12-29T09:25:35;102.72;;;47.47;;
66585;SDS011;53444;45.822;16.092;2022-12-29T09:28:02;72.13;;;35.80;;
66585;SDS011;53444;45.822;16.092;2022-12-29T09:30:32;94.13;;;43.25;;
66585;SDS011;53444;45.822;16.092;2022-12-29T09:33:00;79.35;;;38.40;;
66585;SDS011;53444;45.822;16.092;2022-12-29T09:35:27;81.13;;;38.10;;
66585;SDS011;53444;45.822;16.092;2022-12-29T09:37:55;76.43;;;38.20;;
66585;SDS011;53444;45.822;16.092;2022-12-29T09:40:26;60.70;;;32.73;;
66585;SDS011;53444;45.822;16.092;2022-12-29T09:43:01;65.25;;;33.90;;
66585;SDS011;53444;45.822;16.092;2022-12-29T09:45:46;81.95;;;40.35;;
66585;SDS011;53444;45.822;16.092;2022-12-29T09:48:23;78.45;;;39.58;;
66585;SDS011;53444;45.822;16.092;2022-12-29T09:50:55;50.72;;;27.58;;
66585;SDS011;53444;45.822;16.092;2022-12-29T09:53:25;44.33;;;23.80;;
66585;SDS011;53444;45.822;16.092;2022-12-29T09:55:56;43.35;;;23.02;;
66585;SDS011;53444;45.822;16.092;2022-12-29T09:58:28;44.72;;;22.17;;
66585;SDS011;53444;45.822;16.092;2022-12-29T10:01:02;44.55;;;23.73;;
66585;SDS011;53444;45.822;16.092;2022-12-29T10:03:35;42.67;;;22.33;;
66585;SDS011;53444;45.822;16.092;2022-12-29T10:06:11;45.05;;;23.80;;
66585;SDS011;53444;45.822;16.092;2022-12-29T10:08:42;32.97;;;18.63;;
66585;SDS011;53444;45.822;16.092;2022-12-29T10:11:17;29.02;;;16.90;;
66585;SDS011;53444;45.822;16.092;2022-12-29T10:13:58;29.70;;;14.35;;
66585;SDS011;53444;45.822;16.092;2022-12-29T10:16:34;23.25;;;13.50;;
66585;SDS011;53444;45.822;16.092;2022-12-29T10:19:16;22.27;;;13.45;;
66585;SDS011;53444;45.822;16.092;2022-12-29T10:22:17;26.40;;;14.20;;
66585;SDS011;53444;45.822;16.092;2022-12-29T10:24:53;27.05;;;14.75;;
66585;SDS011;53444;45.822;16.092;2022-12-29T10:27:22;26.75;;;13.70;;
66585;SDS011;53444;45.822;16.092;2022-12-29T10:29:51;24.25;;;12.68;;
66585;SDS011;53444;45.822;16.092;2022-12-29T10:32:25;24.00;;;12.70;;
66585;SDS011;53444;45.822;16.092;2022-12-29T10:35:10;20.60;;;9.68;;
66585;SDS011;53444;45.822;16.092;2022-12-29T10:37:42;17.55;;;9.50;;
66585;SDS011;53444;45.822;16.092;2022-12-29T10:40:17;14.05;;;8.75;;
66585;SDS011;53444;45.822;16.092;2022-12-29T10:42:50;13.90;;;8.45;;
66585;SDS011;53444;45.822;16.092;2022-12-29T10:45:19;16.48;;;9.00;;
66585;SDS011;53444;45.822;16.092;2022-12-29T10:47:51;15.07;;;8.45;;
66585;SDS011;53444;45.822;16.092;2022-12-29T10:50:23;15.25;;;6.72;;
66585;SDS011;53444;45.822;16.092;2022-12-29T10:52:51;11.90;;;7.10;;
66585;SDS011;53444;45.822;16.092;2022-12-29T10:55:19;14.02;;;7.22;;
66585;SDS011;53444;45.822;16.092;2022-12-29T10:57:49;12.63;;;6.47;;
66585;SDS011;53444;45.822;16.092;2022-12-29T11:00:17;12.43;;;6.35;;
66585;SDS011;53444;45.822;16.092;2022-12-29T11:03:04;11.85;;;5.80;;
66585;SDS011;53444;45.822;16.092;2022-12-29T11:05:54;12.98;;;6.93;;
66585;SDS011;53444;45.822;16.092;2022-12-29T11:08:25;14.52;;;7.00;;
66585;SDS011;53444;45.822;16.092;2022-12-29T11:11:00;10.48;;;5.78;;
66585;SDS011;53444;45.822;16.092;2022-12-29T11:14:10;16.80;;;6.63;;
66585;SDS011;53444;45.822;16.092;2022-12-29T11:16:38;14.52;;;7.07;;
66585;SDS011;53444;45.822;16.092;2022-12-29T11:19:10;13.35;;;6.90;;
66585;SDS011;53444;45.822;16.092;2022-12-29T11:21:47;15.23;;;7.75;;
66585;SDS011;53444;45.822;16.092;2022-12-29T11:24:18;23.13;;;12.15;;
66585;SDS011;53444;45.822;16.092;2022-12-29T11:26:46;18.98;;;9.43;;
66585;SDS011;53444;45.822;16.092;2022-12-29T11:29:23;16.73;;;8.48;;
66585;SDS011;53444;45.822;16.092;2022-12-29T11:31:51;14.20;;;8.00;;
66585;SDS011;53444;45.822;16.092;2022-12-29T11:34:21;14.65;;;7.60;;
66585;SDS011;53444;45.822;16.092;2022-12-29T11:36:52;14.90;;;8.00;;
66585;SDS011;53444;45.822;16.092;2022-12-29T11:39:25;10.65;;;6.35;;
66585;SDS011;53444;45.822;16.092;2022-12-29T11:41:54;14.43;;;7.90;;
66585;SDS011;53444;45.822;16.092;2022-12-29T11:44:21;12.95;;;8.00;;
66585;SDS011;53444;45.822;16.092;2022-12-29T11:46:49;17.05;;;7.95;;
66585;SDS011;53444;45.822;16.092;2022-12-29T11:49:19;13.48;;;6.50;;
66585;SDS011;53444;45.822;16.092;2022-12-29T11:51:48;13.07;;;6.57;;
66585;SDS011;53444;45.822;16.092;2022-12-29T11:54:19;11.88;;;6.03;;
66585;SDS011;53444;45.822;16.092;2022-12-29T11:56:49;12.60;;;6.00;;
66585;SDS011;53444;45.822;16.092;2022-12-29T11:59:34;11.38;;;6.18;;
66585;SDS011;53444;45.822;16.092;2022-12-29T12:02:11;19.90;;;10.15;;
66585;SDS011;53444;45.822;16.092;2022-12-29T12:04:53;15.43;;;8.80;;
66585;SDS011;53444;45.822;16.092;2022-12-29T12:07:29;7.43;;;4.40;;
66585;SDS011;53444;45.822;16.092;2022-12-29T12:10:06;11.52;;;5.28;;
66585;SDS011;53444;45.822;16.092;2022-12-29T12:12:41;12.65;;;6.60;;
66585;SDS011;53444;45.822;16.092;2022-12-29T12:15:14;14.93;;;6.97;;
66585;SDS011;53444;45.822;16.092;2022-12-29T12:17:47;14.98;;;6.45;;
66585;SDS011;53444;45.822;16.092;2022-12-29T12:20:18;15.27;;;7.53;;
66585;SDS011;53444;45.822;16.092;2022-12-29T12:22:50;15.88;;;7.85;;
66585;SDS011;53444;45.822;16.092;2022-12-29T12:25:27;11.20;;;6.45;;
66585;SDS011;53444;45.822;16.092;2022-12-29T12:28:01;16.08;;;6.85;;
66585;SDS011;53444;45.822;16.092;2022-12-29T12:30:36;14.75;;;7.10;;
66585;SDS011;53444;45.822;16.092;2022-12-29T12:33:31;10.25;;;5.82;;
66585;SDS011;53444;45.822;16.092;2022-12-29T12:36:09;13.38;;;7.05;;
66585;SDS011;53444;45.822;16.092;2022-12-29T12:38:50;19.13;;;9.40;;
66585;SDS011;53444;45.822;16.092;2022-12-29T12:41:24;16.20;;;8.65;;
66585;SDS011;53444;45.822;16.092;2022-12-29T12:44:00;17.98;;;9.20;;
66585;SDS011;53444;45.822;16.092;2022-12-29T12:46:48;19.42;;;9.48;;
66585;SDS011;53444;45.822;16.092;2022-12-29T12:49:40;16.92;;;8.43;;
66585;SDS011;53444;45.822;16.092;2022-12-29T12:52:24;17.17;;;8.93;;
66585;SDS011;53444;45.822;16.092;2022-12-29T12:55:01;15.70;;;8.65;;
66585;SDS011;53444;45.822;16.092;2022-12-29T12:57:44;12.75;;;7.80;;
66585;SDS011;53444;45.822;16.092;2022-12-29T13:00:17;13.82;;;8.32;;
66585;SDS011;53444;45.822;16.092;2022-12-29T13:02:51;18.52;;;8.80;;
66585;SDS011;53444;45.822;16.092;2022-12-29T13:05:32;16.20;;;8.50;;
66585;SDS011;53444;45.822;16.092;2022-12-29T13:08:28;13.82;;;7.35;;
66585;SDS011;53444;45.822;16.092;2022-12-29T13:11:10;12.02;;;6.47;;
66585;SDS011;53444;45.822;16.092;2022-12-29T13:13:57;13.30;;;7.30;;
66585;SDS011;53444;45.822;16.092;2022-12-29T13:16:33;12.68;;;6.97;;
66585;SDS011;53444;45.822;16.092;2022-12-29T13:19:12;13.38;;;7.00;;
66585;SDS011;53444;45.822;16.092;2022-12-29T13:21:51;14.10;;;7.05;;
66585;SDS011;53444;45.822;16.092;2022-12-29T13:24:27;15.95;;;6.95;;
66585;SDS011;53444;45.822;16.092;2022-12-29T13:27:04;14.15;;;7.68;;
66585;SDS011;53444;45.822;16.092;2022-12-29T13:29:42;11.55;;;6.43;;
66585;SDS011;53444;45.822;16.092;2022-12-29T13:32:16;19.92;;;8.40;;
66585;SDS011;53444;45.822;16.092;2022-12-29T13:34:51;12.95;;;7.40;;
66585;SDS011;53444;45.822;16.092;2022-12-29T13:37:24;13.45;;;7.95;;
66585;SDS011;53444;45.822;16.092;2022-12-29T13:39:54;15.38;;;9.00;;
66585;SDS011;53444;45.822;16.092;2022-12-29T13:42:25;12.57;;;6.25;;
66585;SDS011;53444;45.822;16.092;2022-12-29T13:44:54;13.77;;;8.00;;
66585;SDS011;53444;45.822;16.092;2022-12-29T13:47:26;11.95;;;7.07;;
66585;SDS011;53444;45.822;16.092;2022-12-29T13:49:55;10.23;;;6.05;;
66585;SDS011;53444;45.822;16.092;2022-12-29T13:52:24;12.10;;;6.45;;
66585;SDS011;53444;45.822;16.092;2022-12-29T13:55:00;12.38;;;7.00;;
66585;SDS011;53444;45.822;16.092;2022-12-29T13:57:35;11.15;;;6.03;;
66585;SDS011;53444;45.822;16.092;2022-12-29T14:00:13;8.00;;;4.88;;
66585;SDS011;53444;45.822;16.092;2022-12-29T14:02:46;7.70;;;5.03;;
66585;SDS011;53444;45.822;16.092;2022-12-29T14:05:38;9.82;;;5.10;;
66585;SDS011;53444;45.822;16.092;2022-12-29T14:08:05;9.25;;;5.30;;
66585;SDS011;53444;45.822;16.092;2022-12-29T14:10:45;7.30;;;4.30;;
66585;SDS011;53444;45.822;16.092;2022-12-29T14:13:14;8.85;;;5.57;;
66585;SDS011;53444;45.822;16.092;2022-12-29T14:15:45;8.70;;;5.20;;
66585;SDS011;53444;45.822;16.092;2022-12-29T14:18:17;12.32;;;5.95;;
66585;SDS011;53444;45.822;16.092;2022-12-29T14:20:51;13.35;;;6.90;;
66585;SDS011;53444;45.822;16.092;2022-12-29T14:23:27;11.55;;;6.57;;
66585;SDS011;53444;45.822;16.092;2022-12-29T14:26:11;14.50;;;7.70;;
66585;SDS011;53444;45.822;16.092;2022-12-29T14:28:41;12.70;;;7.32;;
66585;SDS011;53444;45.822;16.092;2022-12-29T14:37:03;13.23;;;6.90;;
66585;SDS011;53444;45.822;16.092;2022-12-29T14:39:34;12.75;;;7.38;;
66585;SDS011;53444;45.822;16.092;2022-12-29T14:42:04;15.65;;;8.50;;
66585;SDS011;53444;45.822;16.092;2022-12-29T14:44:33;14.32;;;7.13;;
66585;SDS011;53444;45.822;16.092;2022-12-29T14:47:13;14.38;;;8.48;;
66585;SDS011;53444;45.822;16.092;2022-12-29T14:49:44;18.55;;;9.02;;